createdAt,value
2022-08-10T00:00:53.500Z,1.40
2022-08-10T00:03:21.193Z,1.20
2022-08-10T00:05:53.231Z,1.30
2022-08-10T00:08:24.014Z,1.85
2022-08-10T00:10:52.572Z,1.67
2022-08-10T00:13:20.246Z,1.33
2022-08-10T00:15:53.684Z,1.27
2022-08-10T00:18:35.040Z,1.75
2022-08-10T00:21:04.651Z,1.70
2022-08-10T00:23:32.393Z,1.42
2022-08-10T00:26:00.169Z,1.25
2022-08-10T00:28:27.853Z,1.35
2022-08-10T00:30:56.052Z,1.30
2022-08-10T00:33:25.143Z,1.40
2022-08-10T00:35:52.832Z,1.40
2022-08-10T00:38:20.522Z,1.73
2022-08-10T00:40:48.244Z,1.30
2022-08-10T00:43:23.380Z,1.60
2022-08-10T00:45:59.859Z,1.30
2022-08-10T00:48:30.151Z,1.20
2022-08-10T00:50:58.520Z,1.30
2022-08-10T00:53:26.367Z,1.27
2022-08-10T00:57:12.892Z,1.40
2022-08-10T00:58:41.853Z,1.30
2022-08-10T01:01:22.606Z,1.45
2022-08-10T01:04:58.001Z,1.42
2022-08-10T01:06:48.978Z,1.30
2022-08-10T01:09:19.118Z,1.17
2022-08-10T01:12:38.385Z,1.20
2022-08-10T01:14:42.171Z,1.48
2022-08-10T01:17:12.368Z,1.40
2022-08-10T01:19:49.043Z,1.40
2022-08-10T01:22:46.105Z,1.50
2022-08-10T01:25:35.591Z,1.80
2022-08-10T01:28:31.556Z,1.35
2022-08-10T01:31:01.848Z,1.20
2022-08-10T01:33:58.403Z,1.30
2022-08-10T01:36:20.275Z,1.50
2022-08-10T01:38:59.888Z,1.25
2022-08-10T01:41:28.838Z,1.27
2022-08-10T01:44:12.980Z,1.48
2022-08-10T01:46:45.368Z,1.05
2022-08-10T01:49:12.707Z,1.30
2022-08-10T01:51:43.528Z,1.65
2022-08-10T01:54:13.382Z,1.30
2022-08-10T01:56:43.219Z,1.30
2022-08-10T01:59:14.939Z,1.30
2022-08-10T02:01:47.700Z,2.38
2022-08-10T02:04:16.232Z,1.40
2022-08-10T02:06:45.308Z,1.30
2022-08-10T02:09:15.200Z,1.67
2022-08-10T02:12:07.784Z,1.15
2022-08-10T02:14:34.669Z,1.08
2022-08-10T02:17:04.689Z,1.52
2022-08-10T02:19:32.393Z,1.42
2022-08-10T02:22:09.470Z,1.45
2022-08-10T02:24:47.730Z,1.20
2022-08-10T02:27:15.463Z,1.50
2022-08-10T02:29:43.215Z,1.17
2022-08-10T02:32:20.136Z,1.17
2022-08-10T02:35:05.156Z,1.20
2022-08-10T02:37:32.833Z,1.52
2022-08-10T02:40:01.198Z,1.40
2022-08-10T02:45:17.970Z,1.88
2022-08-10T02:45:31.700Z,1.23
2022-08-10T02:48:02.544Z,1.48
2022-08-10T02:50:30.998Z,1.52
2022-08-10T02:53:04.856Z,1.75
2022-08-10T02:55:34.832Z,1.35
2022-08-10T02:58:13.293Z,1.30
2022-08-10T03:00:47.560Z,1.48
2022-08-10T03:03:20.263Z,1.70
2022-08-10T03:05:49.818Z,2.55
2022-08-10T03:08:19.412Z,1.30
2022-08-10T03:10:47.112Z,1.20
2022-08-10T03:13:14.840Z,1.30
2022-08-10T03:15:42.569Z,2.10
2022-08-10T03:18:10.308Z,1.90
2022-08-10T03:20:40.589Z,1.10
2022-08-10T03:23:11.366Z,1.30
2022-08-10T03:25:39.126Z,1.58
2022-08-10T03:28:07.039Z,1.48
2022-08-10T03:30:34.982Z,1.42
2022-08-10T03:33:03.548Z,1.30
2022-08-10T03:35:31.250Z,1.30
2022-08-10T03:38:00.430Z,1.52
2022-08-10T03:40:34.402Z,1.23
2022-08-10T03:43:14.971Z,1.42
2022-08-10T03:45:55.136Z,1.13
2022-08-10T03:48:24.194Z,1.35
2022-08-10T03:50:52.857Z,1.50
2022-08-10T03:53:25.111Z,1.20
2022-08-10T03:56:29.909Z,1.48
2022-08-10T03:58:57.464Z,1.30
2022-08-10T04:02:46.666Z,1.40
2022-08-10T04:04:15.383Z,2.13
2022-08-10T04:06:45.612Z,1.33
2022-08-10T04:09:14.694Z,1.20
2022-08-10T04:11:42.419Z,1.23
2022-08-10T04:14:38.013Z,1.25
2022-08-10T04:16:57.813Z,1.20
2022-08-10T04:19:25.492Z,1.27
2022-08-10T04:22:08.675Z,1.50
2022-08-10T04:24:37.793Z,2.70
2022-08-10T04:27:05.507Z,2.22
2022-08-10T04:29:33.303Z,1.20
2022-08-10T04:32:01.081Z,1.30
2022-08-10T04:34:31.671Z,1.40
2022-08-10T04:37:00.150Z,1.33
2022-08-10T04:39:28.009Z,1.35
2022-08-10T04:41:57.111Z,1.50
2022-08-10T04:44:24.939Z,1.20
2022-08-10T04:46:57.739Z,1.20
2022-08-10T04:49:54.768Z,1.88
2022-08-10T04:52:14.640Z,1.15
2022-08-10T04:54:42.393Z,1.20
2022-08-10T04:57:11.421Z,1.45
2022-08-10T04:59:39.231Z,1.92
2022-08-10T05:02:22.145Z,1.17
2022-08-10T05:04:54.604Z,1.83
2022-08-10T05:07:22.324Z,1.10
2022-08-10T05:10:02.358Z,1.08
2022-08-10T05:12:35.850Z,1.60
2022-08-10T05:15:05.923Z,2.40
2022-08-10T05:17:34.162Z,1.20
2022-08-10T05:20:06.450Z,2.15
2022-08-10T05:22:39.226Z,1.85
2022-08-10T05:25:08.721Z,1.15
2022-08-10T05:27:37.857Z,1.30
2022-08-10T05:30:06.951Z,1.42
2022-08-10T05:32:59.157Z,1.23
2022-08-10T05:35:22.973Z,1.48
2022-08-10T05:38:11.657Z,1.38
2022-08-10T05:40:39.428Z,1.30
2022-08-10T05:43:08.563Z,1.13
2022-08-10T05:46:18.431Z,1.23
2022-08-10T05:48:57.297Z,1.20
2022-08-10T05:51:12.662Z,1.10
2022-08-10T05:54:00.854Z,1.25
2022-08-10T05:56:28.059Z,1.00
2022-08-10T06:00:30.986Z,1.40
2022-08-10T06:02:30.692Z,1.10
2022-08-10T06:04:53.212Z,1.20
2022-08-10T06:07:21.864Z,1.30
2022-08-10T06:09:58.695Z,1.20
2022-08-10T06:12:30.082Z,1.33
2022-08-10T06:15:10.279Z,1.30
2022-08-10T06:18:02.100Z,1.33
2022-08-10T06:20:35.401Z,1.23
2022-08-10T06:23:04.998Z,1.17
2022-08-10T06:26:11.934Z,1.35
2022-08-10T06:28:21.128Z,1.27
2022-08-10T06:30:50.276Z,1.50
2022-08-10T06:33:18.052Z,1.70
2022-08-10T06:35:45.747Z,1.30
2022-08-10T06:38:13.402Z,1.33
2022-08-10T06:40:41.882Z,1.33
2022-08-10T06:43:10.816Z,1.52
2022-08-10T06:45:42.221Z,1.20
2022-08-10T06:48:14.985Z,1.10
2022-08-10T06:50:58.802Z,1.65
2022-08-10T06:53:52.112Z,1.13
2022-08-10T06:56:20.678Z,1.95
2022-08-10T06:59:08.209Z,1.27
2022-08-10T07:01:51.270Z,1.52
2022-08-10T07:04:32.426Z,1.27
2022-08-10T07:07:02.227Z,1.27
2022-08-10T07:09:30.169Z,1.92
2022-08-10T07:11:57.988Z,1.15
2022-08-10T07:14:37.374Z,1.08
2022-08-10T07:17:05.454Z,1.10
2022-08-10T07:19:34.491Z,1.30
2022-08-10T07:23:01.374Z,1.10
2022-08-10T07:25:07.191Z,1.13
2022-08-10T07:27:58.214Z,1.20
2022-08-10T07:30:22.702Z,1.38
2022-08-10T07:32:51.969Z,1.90
2022-08-10T07:35:21.150Z,1.30
2022-08-10T07:37:49.428Z,1.10
2022-08-10T07:40:17.834Z,1.20
2022-08-10T07:42:46.444Z,1.30
2022-08-10T07:45:14.353Z,1.52
2022-08-10T07:47:53.721Z,1.30
2022-08-10T07:50:25.308Z,1.52
2022-08-10T07:52:53.179Z,1.10
2022-08-10T07:56:07.522Z,1.65
2022-08-10T07:58:08.698Z,1.48
2022-08-10T08:00:36.524Z,1.63
2022-08-10T08:03:07.143Z,1.80
2022-08-10T08:05:58.173Z,2.65
2022-08-10T08:08:23.909Z,1.63
2022-08-10T08:10:51.645Z,2.83
2022-08-10T08:13:19.380Z,1.50
2022-08-10T08:16:17.941Z,1.65
2022-08-10T08:18:36.924Z,1.48
2022-08-10T08:24:06.197Z,1.75
2022-08-10T08:24:07.807Z,2.05
2022-08-10T08:26:42.200Z,2.08
2022-08-10T08:29:13.864Z,1.55
2022-08-10T08:32:01.206Z,1.38
2022-08-10T08:34:29.182Z,1.42
2022-08-10T08:36:59.835Z,1.60
2022-08-10T08:39:27.796Z,1.27
2022-08-10T08:42:04.169Z,1.52
2022-08-10T08:44:35.901Z,2.22
2022-08-10T08:48:05.689Z,1.92
2022-08-10T08:50:26.209Z,1.20
2022-08-10T08:53:00.443Z,1.60
2022-08-10T08:55:56.071Z,1.33
2022-08-10T08:58:31.386Z,1.38
2022-08-10T09:01:03.138Z,2.58
2022-08-10T09:03:57.529Z,1.35
2022-08-10T09:06:38.480Z,1.75
2022-08-10T09:09:33.382Z,1.58
2022-08-10T09:12:09.240Z,1.98
2022-08-10T09:14:39.233Z,1.30
2022-08-10T09:17:12.913Z,1.25
2022-08-10T09:19:44.377Z,1.33
2022-08-10T09:22:18.417Z,2.63
2022-08-10T09:24:50.919Z,1.23
2022-08-10T09:27:20.541Z,1.80
2022-08-10T09:29:54.496Z,1.23
2022-08-10T09:36:16.930Z,1.50
2022-08-10T09:36:22.101Z,1.40
2022-08-10T09:38:13.056Z,1.20
2022-08-10T09:40:57.703Z,2.08
2022-08-10T09:43:36.187Z,1.75
2022-08-10T09:46:11.879Z,1.50
2022-08-10T09:48:44.370Z,1.08
2022-08-10T09:51:44.783Z,1.50
2022-08-10T09:54:18.797Z,1.98
2022-08-10T09:56:50.809Z,2.22
2022-08-10T09:59:56.660Z,2.58
2022-08-10T10:02:15.934Z,3.30
2022-08-10T10:04:46.808Z,3.17
2022-08-10T10:07:17.607Z,3.00
2022-08-10T10:09:49.086Z,6.03
2022-08-10T10:12:28.004Z,6.53
2022-08-10T10:15:24.877Z,7.35
2022-08-10T10:18:32.272Z,5.35
2022-08-10T10:21:03.143Z,5.25
2022-08-10T10:24:19.723Z,5.22
2022-08-10T10:26:42.544Z,4.80
2022-08-10T10:29:56.242Z,11.18
2022-08-10T10:32:09.792Z,12.88
2022-08-10T10:34:41.837Z,15.82
2022-08-10T10:37:09.524Z,31.55
2022-08-10T10:39:37.290Z,24.33
2022-08-10T10:42:34.946Z,34.63
2022-08-10T10:45:07.870Z,38.25
2022-08-10T10:47:46.452Z,41.85
2022-08-10T10:50:17.808Z,41.88
2022-08-10T10:52:50.463Z,63.90
2022-08-10T10:55:20.759Z,56.38
2022-08-10T10:57:59.342Z,39.90
2022-08-10T11:00:34.711Z,46.53
2022-08-10T11:03:24.230Z,37.25
2022-08-10T11:05:56.037Z,37.65
2022-08-10T11:08:28.682Z,30.05
2022-08-10T11:10:59.064Z,32.10
2022-08-10T11:14:25.776Z,33.33
2022-08-10T11:16:24.332Z,38.95
2022-08-10T11:18:58.847Z,25.75
2022-08-10T11:21:39.619Z,29.02
2022-08-10T11:24:44.356Z,32.35
2022-08-10T11:27:02.051Z,28.88
2022-08-10T11:29:33.268Z,38.30
2022-08-10T11:32:04.014Z,28.83
2022-08-10T11:34:48.751Z,47.20
2022-08-10T11:37:26.856Z,34.58
2022-08-10T11:40:00.909Z,46.90
2022-08-10T11:42:36.359Z,35.88
2022-08-10T11:45:06.552Z,29.35
2022-08-10T11:47:38.967Z,31.98
2022-08-10T11:50:12.665Z,40.30
2022-08-10T11:52:42.379Z,41.83
2022-08-10T11:55:13.799Z,30.25
2022-08-10T11:57:53.869Z,34.72
2022-08-10T12:00:22.199Z,32.95
2022-08-10T12:02:53.431Z,42.05
2022-08-10T12:05:46.798Z,31.13
2022-08-10T12:10:01.845Z,26.40
2022-08-10T12:10:59.151Z,29.95
2022-08-10T12:13:29.223Z,42.35
2022-08-10T12:16:05.391Z,34.70
2022-08-10T12:18:37.587Z,30.25
2022-08-10T12:21:09.076Z,20.58
2022-08-10T12:24:02.354Z,23.42
2022-08-10T12:26:36.037Z,20.17
2022-08-10T12:29:09.621Z,27.42
2022-08-10T12:31:41.237Z,24.55
2022-08-10T12:34:18.008Z,27.90
2022-08-10T12:36:48.045Z,23.17
2022-08-10T12:39:17.469Z,25.77
2022-08-10T12:41:49.172Z,15.50
2022-08-10T12:44:19.132Z,15.40
2022-08-10T12:46:51.284Z,16.10
2022-08-10T12:49:21.149Z,18.50
2022-08-10T12:51:51.224Z,15.75
2022-08-10T12:54:32.076Z,20.10
2022-08-10T12:57:01.286Z,23.20
2022-08-10T12:59:29.141Z,24.05
2022-08-10T13:02:09.474Z,28.65
2022-08-10T13:04:40.080Z,24.92
2022-08-10T13:07:07.901Z,18.48
2022-08-10T13:09:56.704Z,20.42
2022-08-10T13:12:35.974Z,27.45
2022-08-10T13:15:45.279Z,33.50
2022-08-10T13:18:00.560Z,18.98
2022-08-10T13:20:31.225Z,28.40
2022-08-10T13:22:59.956Z,24.55
2022-08-10T13:25:30.927Z,30.92
2022-08-10T13:28:35.580Z,29.75
2022-08-10T13:30:50.950Z,24.67
2022-08-10T13:34:03.780Z,34.45
2022-08-10T13:36:15.605Z,35.55
2022-08-10T13:38:45.440Z,31.33
2022-08-10T13:41:13.243Z,24.88
2022-08-10T13:43:50.927Z,29.20
2022-08-10T13:46:22.532Z,38.75
2022-08-10T13:48:51.503Z,31.30
2022-08-10T13:51:21.503Z,35.30
2022-08-10T13:54:09.307Z,30.95
2022-08-10T13:56:37.050Z,41.72
2022-08-10T13:59:09.744Z,36.83
2022-08-10T14:01:37.773Z,37.55
2022-08-10T14:04:06.708Z,42.80
2022-08-10T14:06:36.547Z,52.47
2022-08-10T14:09:07.041Z,37.00
2022-08-10T14:11:34.798Z,35.03
2022-08-10T14:14:03.854Z,32.80
2022-08-10T14:16:31.610Z,43.60
2022-08-10T14:19:00.820Z,29.58
2022-08-10T14:21:29.337Z,28.15
2022-08-10T14:23:58.536Z,45.60
2022-08-10T14:26:28.901Z,38.25
2022-08-10T14:28:58.166Z,34.83
2022-08-10T14:31:33.348Z,36.63
2022-08-10T14:34:01.170Z,34.97
2022-08-10T14:36:37.761Z,28.90
2022-08-10T14:39:06.872Z,32.92
2022-08-10T14:42:01.784Z,32.13
2022-08-10T14:44:24.193Z,35.28
2022-08-10T14:46:54.400Z,37.47
2022-08-10T14:49:25.461Z,29.65
2022-08-10T14:51:53.827Z,37.10
2022-08-10T14:54:29.477Z,43.63
2022-08-10T14:56:57.777Z,42.55
2022-08-10T14:59:45.928Z,41.65
2022-08-10T15:02:40.185Z,35.25
2022-08-10T15:05:09.097Z,37.65
2022-08-10T15:07:37.642Z,38.53
2022-08-10T15:10:08.308Z,52.08
2022-08-10T15:12:38.321Z,37.70
2022-08-10T15:15:08.268Z,48.15
2022-08-10T15:17:39.407Z,42.63
2022-08-10T15:20:14.557Z,38.13
2022-08-10T15:24:04.580Z,37.35
2022-08-10T15:26:26.488Z,43.67
2022-08-10T15:29:22.182Z,27.80
2022-08-10T15:32:00.096Z,30.60
2022-08-10T15:34:45.384Z,38.35
2022-08-10T15:37:40.588Z,44.97
2022-08-10T15:40:25.482Z,57.83
2022-08-10T15:42:58.270Z,34.85
2022-08-10T15:45:26.281Z,29.23
2022-08-10T15:48:01.870Z,32.85
2022-08-10T15:50:33.525Z,33.47
2022-08-10T15:53:02.949Z,26.02
2022-08-10T15:55:42.394Z,25.73
2022-08-10T15:58:16.716Z,17.85
2022-08-10T16:00:47.264Z,22.58
2022-08-10T16:03:17.083Z,24.40
2022-08-10T16:06:02.008Z,21.33
2022-08-10T16:08:37.325Z,20.42
2022-08-10T16:11:26.767Z,22.30
2022-08-10T16:14:11.812Z,16.75
2022-08-10T16:16:39.990Z,18.25
2022-08-10T16:19:22.144Z,14.65
2022-08-10T16:21:58.155Z,13.20
2022-08-10T16:24:26.419Z,16.83
2022-08-10T16:26:54.706Z,15.73
2022-08-10T16:29:25.115Z,15.02
2022-08-10T16:31:54.123Z,11.30
2022-08-10T16:34:22.438Z,14.57
2022-08-10T16:36:53.236Z,11.43
2022-08-10T16:39:57.578Z,14.63
2022-08-10T16:42:11.008Z,12.05
2022-08-10T16:44:41.531Z,9.25
2022-08-10T16:47:09.893Z,8.55
2022-08-10T16:49:39.200Z,11.85
2022-08-10T16:52:07.470Z,9.30
2022-08-10T16:54:36.084Z,12.90
2022-08-10T16:57:05.156Z,12.32
2022-08-10T16:59:35.081Z,9.20
2022-08-10T17:02:05.727Z,9.90
2022-08-10T17:04:33.980Z,7.78
2022-08-10T17:07:04.308Z,8.63
2022-08-10T17:09:33.388Z,9.73
2022-08-10T17:12:05.689Z,7.07
2022-08-10T17:14:33.858Z,6.28
2022-08-10T17:17:06.921Z,8.48
2022-08-10T17:19:37.357Z,6.53
2022-08-10T17:22:10.853Z,12.13
2022-08-10T17:24:41.787Z,7.35
2022-08-10T17:28:04.627Z,6.95
2022-08-10T17:30:04.250Z,7.32
2022-08-10T17:32:44.762Z,7.38
2022-08-10T17:35:14.235Z,7.53
2022-08-10T17:37:46.304Z,7.13
2022-08-10T17:40:16.241Z,4.18
2022-08-10T17:42:46.768Z,4.20
2022-08-10T17:45:20.868Z,5.60
2022-08-10T17:48:08.174Z,6.43
2022-08-10T17:50:36.857Z,6.05
2022-08-10T17:53:06.695Z,5.82
2022-08-10T17:55:35.413Z,3.83
2022-08-10T17:58:03.653Z,5.43
2022-08-10T18:00:31.977Z,7.47
2022-08-10T18:02:59.880Z,5.20
2022-08-10T18:05:30.720Z,5.22
2022-08-10T18:07:58.478Z,7.03
2022-08-10T18:10:26.531Z,5.35
2022-08-10T18:12:54.928Z,3.47
2022-08-10T18:15:23.733Z,5.22
2022-08-10T18:17:59.278Z,5.75
2022-08-10T18:20:33.357Z,7.00
2022-08-10T18:23:01.059Z,4.63
2022-08-10T18:25:31.940Z,5.22
2022-08-10T18:28:03.989Z,4.65
2022-08-10T18:30:36.544Z,3.88
2022-08-10T18:33:05.355Z,5.20
2022-08-10T18:35:34.949Z,4.75
2022-08-10T18:38:03.048Z,4.20
2022-08-10T18:40:36.239Z,4.90
2022-08-10T18:43:09.993Z,5.65
2022-08-10T18:45:53.050Z,4.63
2022-08-10T18:48:22.653Z,3.45
2022-08-10T18:50:52.808Z,3.60
2022-08-10T18:53:23.832Z,5.40
2022-08-10T18:56:09.614Z,3.72
2022-08-10T18:58:49.651Z,5.25
2022-08-10T19:01:42.340Z,5.93
2022-08-10T19:04:24.856Z,2.72
2022-08-10T19:07:31.505Z,4.57
2022-08-10T19:10:09.572Z,3.90
2022-08-10T19:12:42.908Z,4.13
2022-08-10T19:15:18.964Z,3.55
2022-08-10T19:18:05.887Z,3.25
2022-08-10T19:20:38.803Z,3.97
2022-08-10T19:23:15.233Z,3.63
2022-08-10T19:26:41.466Z,7.65
2022-08-10T19:28:39.543Z,3.70
2022-08-10T19:31:10.982Z,5.20
2022-08-10T19:33:46.341Z,2.80
2022-08-10T19:36:17.583Z,2.75
2022-08-10T19:38:50.308Z,4.15
2022-08-10T19:41:25.430Z,3.03
2022-08-10T19:44:04.536Z,5.05
2022-08-10T19:46:37.104Z,2.55
2022-08-10T19:49:09.173Z,3.08
2022-08-10T19:51:44.310Z,3.83
2022-08-10T19:54:16.985Z,3.30
2022-08-10T19:56:50.698Z,3.25
2022-08-10T20:00:17.012Z,4.78
2022-08-10T20:02:21.035Z,3.70
2022-08-10T20:04:57.309Z,2.95
2022-08-10T20:07:30.999Z,3.58
2022-08-10T20:10:00.796Z,2.30
2022-08-10T20:12:35.593Z,2.40
2022-08-10T20:15:05.030Z,3.30
2022-08-10T20:17:51.396Z,3.28
2022-08-10T20:20:27.806Z,2.17
2022-08-10T20:23:02.954Z,3.42
2022-08-10T20:25:31.160Z,2.38
2022-08-10T20:28:06.190Z,2.10
2022-08-10T20:30:35.359Z,2.45
2022-08-10T20:33:08.343Z,3.42
2022-08-10T20:35:47.165Z,2.53
2022-08-10T20:38:17.351Z,4.18
2022-08-10T20:40:47.121Z,2.80
2022-08-10T20:43:20.133Z,3.33
2022-08-10T20:46:08.000Z,2.95
2022-08-10T20:48:39.230Z,3.35
2022-08-10T20:51:09.311Z,2.88
2022-08-10T20:53:42.415Z,3.53
2022-08-10T20:56:15.643Z,3.10
2022-08-10T20:58:55.046Z,4.22
2022-08-10T21:02:06.484Z,3.58
2022-08-10T21:04:19.758Z,2.58
2022-08-10T21:07:07.307Z,2.97
2022-08-10T21:10:00.378Z,4.60
2022-08-10T21:12:48.792Z,2.38
2022-08-10T21:15:24.887Z,2.78
2022-08-10T21:18:01.163Z,2.05
2022-08-10T21:20:36.002Z,3.72
2022-08-10T21:23:05.855Z,2.45
2022-08-10T21:25:43.374Z,3.35
2022-08-10T21:28:29.127Z,3.78
2022-08-10T21:31:28.219Z,2.25
2022-08-10T21:34:05.925Z,1.60
2022-08-10T21:36:33.721Z,2.25
2022-08-10T21:39:06.832Z,2.75
2022-08-10T21:41:59.730Z,2.25
2022-08-10T21:45:04.305Z,2.95
2022-08-10T21:48:17.355Z,2.55
2022-08-10T21:51:08.801Z,3.20
2022-08-10T21:53:56.902Z,2.72
2022-08-10T21:56:45.888Z,3.67
2022-08-10T21:59:44.551Z,2.92
2022-08-10T22:02:34.823Z,3.08
2022-08-10T22:05:21.383Z,3.45
2022-08-10T22:08:08.116Z,3.28
2022-08-10T22:10:59.677Z,4.90
2022-08-10T22:13:45.187Z,3.83
2022-08-10T22:16:40.454Z,4.15
2022-08-10T22:19:26.003Z,3.90
2022-08-10T22:22:26.799Z,4.45
2022-08-10T22:25:22.717Z,3.90
2022-08-10T22:28:17.413Z,4.10
2022-08-10T22:31:29.985Z,4.13
2022-08-10T22:34:14.512Z,4.18
2022-08-10T22:37:20.000Z,4.07
2022-08-10T22:40:14.653Z,4.45
2022-08-10T22:43:09.903Z,5.13
2022-08-10T22:45:56.811Z,5.20
2022-08-10T22:48:42.168Z,5.10
2022-08-10T22:51:12.587Z,5.25
2022-08-10T22:54:01.812Z,5.72
2022-08-10T22:56:47.181Z,5.10
2022-08-10T22:59:26.976Z,6.00
2022-08-10T23:02:07.645Z,6.03
2022-08-10T23:04:42.767Z,6.20
2022-08-10T23:07:24.397Z,6.80
2022-08-10T23:10:02.448Z,6.63
2022-08-10T23:12:34.263Z,7.57
2022-08-10T23:15:19.923Z,8.23
2022-08-10T23:18:08.878Z,8.15
2022-08-10T23:20:37.400Z,8.52
2022-08-10T23:23:09.684Z,9.68
2022-08-10T23:25:56.176Z,10.07
2022-08-10T23:28:39.329Z,10.48
2022-08-10T23:31:12.877Z,11.23
2022-08-10T23:33:40.657Z,11.32
2022-08-10T23:36:34.464Z,11.50
2022-08-10T23:39:19.963Z,12.13
2022-08-10T23:41:46.729Z,12.35
2022-08-10T23:44:21.203Z,12.40
2022-08-10T23:46:49.020Z,13.20
2022-08-10T23:49:16.716Z,13.30
2022-08-10T23:51:55.636Z,13.63
2022-08-10T23:54:24.561Z,13.13
2022-08-10T23:56:55.279Z,13.60
2022-08-10T23:59:23.849Z,14.10
